createdAt,value
2018-06-08T00:02:15.578Z,5.70
2018-06-08T00:04:43.886Z,6.50
2018-06-08T00:07:12.254Z,5.93
2018-06-08T00:09:40.542Z,6.13
2018-06-08T00:12:08.863Z,5.87
2018-06-08T00:14:37.203Z,5.90
2018-06-08T00:17:05.729Z,6.03
2018-06-08T00:19:34.049Z,6.67
2018-06-08T00:22:02.369Z,5.93
2018-06-08T00:24:30.732Z,6.10
2018-06-08T00:26:59.061Z,5.97
2018-06-08T00:29:27.375Z,5.80
2018-06-08T00:31:55.848Z,6.20
2018-06-08T00:34:24.225Z,6.07
2018-06-08T00:36:52.565Z,6.80
2018-06-08T00:39:20.947Z,6.17
2018-06-08T00:41:49.307Z,5.90
2018-06-08T00:44:17.337Z,6.30
2018-06-08T00:46:45.697Z,5.80
2018-06-08T00:49:14.129Z,6.10
2018-06-08T00:51:42.425Z,6.33
2018-06-08T00:54:10.764Z,6.07
2018-06-08T00:56:50.475Z,6.23
2018-06-08T00:59:18.785Z,6.77
2018-06-08T01:01:47.115Z,5.87
2018-06-08T01:04:15.183Z,5.93
2018-06-08T01:06:43.511Z,6.40
2018-06-08T01:09:11.825Z,5.80
2018-06-08T01:11:40.191Z,6.40
2018-06-08T01:14:08.514Z,5.27
2018-06-08T01:16:36.857Z,5.83
2018-06-08T01:19:05.240Z,6.57
2018-06-08T01:21:33.568Z,6.37
2018-06-08T01:24:01.924Z,6.30
2018-06-08T01:26:30.256Z,6.80
2018-06-08T01:28:58.371Z,7.03
2018-06-08T01:31:26.688Z,6.40
2018-06-08T01:33:55.039Z,6.53
2018-06-08T01:36:23.413Z,6.73
2018-06-08T01:38:51.753Z,6.40
2018-06-08T01:41:20.097Z,6.60
2018-06-08T01:43:48.455Z,6.73
2018-06-08T01:46:16.781Z,6.83
2018-06-08T01:48:45.142Z,7.03
2018-06-08T01:51:15.189Z,6.60
2018-06-08T01:53:43.614Z,6.37
2018-06-08T01:56:11.953Z,6.87
2018-06-08T01:58:40.287Z,6.57
2018-06-08T02:01:08.615Z,6.60
2018-06-08T02:03:37.153Z,6.63
2018-06-08T02:06:05.483Z,6.73
2018-06-08T02:08:33.809Z,6.80
2018-06-08T02:11:02.121Z,6.53
2018-06-08T02:13:30.474Z,6.77
2018-06-08T02:15:58.963Z,6.77
2018-06-08T02:18:27.306Z,6.73
2018-06-08T02:20:55.617Z,6.13
2018-06-08T02:23:23.984Z,6.93
2018-06-08T02:25:52.501Z,6.83
2018-06-08T02:28:20.836Z,6.53
2018-06-08T02:30:49.111Z,7.10
2018-06-08T02:33:17.463Z,6.40
2018-06-08T02:35:45.813Z,6.63
2018-06-08T02:38:14.193Z,6.73
2018-06-08T02:40:42.520Z,6.30
2018-06-08T02:43:10.852Z,6.60
2018-06-08T02:45:39.224Z,6.00
2018-06-08T02:48:07.584Z,6.73
2018-06-08T02:50:35.903Z,6.27
2018-06-08T02:53:04.246Z,5.90
2018-06-08T02:55:32.559Z,6.40
2018-06-08T02:58:00.906Z,6.40
2018-06-08T03:00:29.186Z,6.57
2018-06-08T03:02:57.584Z,6.10
2018-06-08T03:05:25.955Z,6.30
2018-06-08T03:07:54.320Z,6.87
2018-06-08T03:10:22.642Z,6.70
2018-06-08T03:12:50.972Z,6.57
2018-06-08T03:15:19.296Z,6.90
2018-06-08T03:17:47.676Z,6.63
2018-06-08T03:20:16.002Z,6.87
2018-06-08T03:22:44.333Z,6.67
2018-06-08T03:25:12.702Z,6.20
2018-06-08T03:27:41.024Z,6.23
2018-06-08T03:30:09.396Z,6.10
2018-06-08T03:32:37.697Z,6.67
2018-06-08T03:35:06.865Z,6.57
2018-06-08T03:37:35.195Z,7.00
2018-06-08T03:40:03.514Z,6.83
2018-06-08T03:42:31.808Z,7.03
2018-06-08T03:45:00.190Z,6.80
2018-06-08T03:47:28.537Z,6.93
2018-06-08T03:49:56.900Z,6.57
2018-06-08T03:52:25.218Z,6.57
2018-06-08T03:54:53.529Z,7.03
2018-06-08T03:57:21.834Z,6.47
2018-06-08T03:59:50.128Z,6.80
2018-06-08T04:02:18.174Z,6.77
2018-06-08T04:04:46.530Z,6.70
2018-06-08T04:07:14.898Z,7.00
2018-06-08T04:09:43.259Z,6.77
2018-06-08T04:12:11.628Z,6.67
2018-06-08T04:14:40.006Z,6.33
2018-06-08T04:17:08.339Z,6.10
2018-06-08T04:19:36.659Z,6.90
2018-06-08T04:22:05.045Z,5.73
2018-06-08T04:24:33.410Z,6.17
2018-06-08T04:27:01.759Z,6.40
2018-06-08T04:29:30.077Z,6.50
2018-06-08T04:31:58.391Z,5.80
2018-06-08T04:34:26.705Z,6.37
2018-06-08T04:36:55.073Z,6.13
2018-06-08T04:39:23.401Z,5.90
2018-06-08T04:41:51.792Z,5.87
2018-06-08T04:44:20.115Z,5.63
2018-06-08T04:46:48.426Z,5.60
2018-06-08T04:49:16.768Z,5.60
2018-06-08T04:51:45.215Z,5.60
2018-06-08T04:54:13.939Z,5.27
2018-06-08T04:56:42.274Z,5.33
2018-06-08T04:59:10.628Z,5.30
2018-06-08T05:01:38.988Z,5.80
2018-06-08T05:04:07.308Z,5.10
2018-06-08T05:06:35.622Z,6.13
2018-06-08T05:09:04.953Z,6.00
2018-06-08T05:11:33.249Z,5.80
2018-06-08T05:14:01.591Z,5.73
2018-06-08T05:16:29.948Z,6.23
2018-06-08T05:18:58.307Z,5.07
2018-06-08T05:21:26.608Z,5.50
2018-06-08T05:23:54.964Z,5.13
2018-06-08T05:26:23.284Z,4.93
2018-06-08T05:28:51.589Z,4.90
2018-06-08T05:31:22.377Z,4.30
2018-06-08T05:33:50.678Z,4.93
2018-06-08T05:36:19.118Z,4.90
2018-06-08T05:38:47.195Z,4.87
2018-06-08T05:41:15.309Z,4.43
2018-06-08T05:43:43.591Z,4.60
2018-06-08T05:46:11.930Z,6.40
2018-06-08T05:48:40.244Z,9.00
2018-06-08T05:51:08.567Z,4.83
2018-06-08T05:53:36.876Z,4.70
2018-06-08T05:56:05.096Z,4.70
2018-06-08T05:58:33.412Z,4.03
2018-06-08T06:01:01.732Z,4.40
2018-06-08T06:03:30.083Z,4.23
2018-06-08T06:05:58.386Z,4.07
2018-06-08T06:08:26.712Z,4.43
2018-06-08T06:10:55.059Z,3.93
2018-06-08T06:13:23.365Z,5.00
2018-06-08T06:15:51.703Z,4.10
2018-06-08T06:18:20.018Z,4.87
2018-06-08T06:20:48.378Z,4.23
2018-06-08T06:23:16.712Z,4.10
2018-06-08T06:25:45.070Z,4.20
2018-06-08T06:28:13.389Z,3.87
2018-06-08T06:30:41.745Z,4.13
2018-06-08T06:33:10.068Z,4.13
2018-06-08T06:35:38.441Z,4.00
2018-06-08T06:38:06.741Z,7.30
2018-06-08T06:40:35.149Z,6.73
2018-06-08T06:43:03.553Z,5.30
2018-06-08T06:45:31.881Z,4.97
2018-06-08T06:48:00.218Z,4.53
2018-06-08T06:50:28.555Z,4.53
2018-06-08T06:52:56.859Z,4.40
2018-06-08T06:55:25.226Z,4.37
2018-06-08T06:57:53.540Z,4.73
2018-06-08T07:00:21.855Z,4.80
2018-06-08T07:02:50.231Z,5.07
2018-06-08T07:05:18.569Z,4.60
2018-06-08T07:07:46.915Z,4.93
2018-06-08T07:10:15.299Z,4.70
2018-06-08T07:12:43.656Z,4.83
2018-06-08T07:15:12.047Z,4.87
2018-06-08T07:17:40.460Z,4.57
2018-06-08T07:20:08.811Z,4.80
2018-06-08T07:22:37.129Z,4.43
2018-06-08T07:25:05.472Z,5.00
2018-06-08T07:27:33.853Z,4.60
2018-06-08T07:30:02.210Z,3.93
2018-06-08T07:32:30.537Z,4.10
2018-06-08T07:34:58.873Z,4.40
2018-06-08T07:37:27.229Z,3.80
2018-06-08T07:39:55.595Z,4.50
2018-06-08T07:42:23.911Z,4.17
2018-06-08T07:44:52.315Z,4.07
2018-06-08T07:47:20.656Z,4.33
2018-06-08T07:49:48.977Z,4.20
2018-06-08T07:52:17.329Z,4.40
2018-06-08T07:54:45.644Z,3.93
2018-06-08T07:57:13.995Z,3.90
2018-06-08T07:59:42.384Z,4.23
2018-06-08T08:02:10.767Z,4.70
2018-06-08T08:04:39.107Z,4.43
2018-06-08T08:07:07.457Z,3.57
2018-06-08T08:09:35.758Z,3.80
2018-06-08T08:12:04.147Z,3.87
2018-06-08T08:14:32.490Z,4.10
2018-06-08T08:17:00.868Z,4.23
2018-06-08T08:19:29.195Z,3.97
2018-06-08T08:21:57.623Z,3.67
2018-06-08T08:24:25.936Z,3.70
2018-06-08T08:26:54.286Z,3.73
2018-06-08T08:29:22.813Z,3.63
2018-06-08T08:31:51.177Z,3.87
2018-06-08T08:34:19.562Z,4.00
2018-06-08T08:36:47.877Z,3.87
2018-06-08T08:39:16.267Z,3.63
2018-06-08T08:41:44.361Z,3.87
2018-06-08T08:44:12.755Z,3.43
2018-06-08T08:46:41.097Z,3.70
2018-06-08T08:49:09.619Z,3.83
2018-06-08T08:51:38.001Z,4.57
2018-06-08T08:54:06.361Z,3.93
2018-06-08T08:56:34.700Z,4.80
2018-06-08T08:59:03.019Z,4.73
2018-06-08T09:01:31.363Z,4.57
2018-06-08T09:03:59.707Z,4.00
2018-06-08T09:06:28.039Z,4.00
2018-06-08T09:08:56.739Z,4.10
2018-06-08T09:11:25.077Z,4.27
2018-06-08T09:13:53.423Z,4.50
2018-06-08T09:16:21.811Z,5.30
2018-06-08T09:18:50.184Z,4.87
2018-06-08T09:21:18.545Z,4.63
2018-06-08T09:23:46.912Z,5.20
2018-06-08T09:26:15.322Z,4.57
2018-06-08T09:28:43.647Z,4.57
2018-06-08T09:31:11.983Z,4.33
2018-06-08T09:33:40.352Z,4.80
2018-06-08T09:36:08.659Z,4.57
2018-06-08T09:38:36.991Z,4.60
2018-06-08T09:41:05.349Z,4.80
2018-06-08T09:43:33.673Z,4.93
2018-06-08T09:46:01.892Z,4.70
2018-06-08T09:48:30.252Z,5.20
2018-06-08T09:50:58.591Z,4.80
2018-06-08T09:53:26.970Z,5.17
2018-06-08T09:55:55.366Z,4.90
2018-06-08T09:58:23.695Z,5.43
2018-06-08T10:00:52.053Z,5.53
2018-06-08T10:03:20.410Z,5.60
2018-06-08T10:05:48.755Z,4.97
2018-06-08T10:08:17.061Z,5.10
2018-06-08T10:10:45.425Z,6.10
2018-06-08T10:13:13.819Z,5.10
2018-06-08T10:15:42.170Z,4.90
2018-06-08T10:18:10.544Z,4.93
2018-06-08T10:20:38.879Z,5.37
2018-06-08T10:23:07.277Z,5.93
2018-06-08T10:25:35.683Z,6.60
2018-06-08T10:28:03.991Z,5.87
2018-06-08T10:30:32.337Z,6.50
2018-06-08T10:33:00.663Z,8.10
2018-06-08T10:35:29.032Z,7.03
2018-06-08T10:37:57.418Z,6.27
2018-06-08T10:40:25.725Z,5.93
2018-06-08T10:42:54.089Z,6.20
2018-06-08T10:45:22.431Z,5.83
2018-06-08T10:47:50.768Z,5.70
2018-06-08T10:50:19.085Z,5.80
2018-06-08T10:52:47.425Z,6.23
2018-06-08T10:55:15.763Z,6.83
2018-06-08T10:57:44.086Z,6.00
2018-06-08T11:00:12.455Z,6.17
2018-06-08T11:02:40.766Z,6.40
2018-06-08T11:05:09.109Z,7.43
2018-06-08T11:07:37.493Z,6.13
2018-06-08T11:10:05.582Z,5.57
2018-06-08T11:12:33.963Z,7.23
2018-06-08T11:15:02.309Z,6.93
2018-06-08T11:17:30.684Z,11.57
2018-06-08T11:19:59.005Z,7.93
2018-06-08T11:22:27.369Z,7.00
2018-06-08T11:24:55.693Z,6.67
2018-06-08T11:27:24.031Z,7.37
2018-06-08T11:29:52.433Z,6.47
2018-06-08T11:32:21.001Z,6.60
2018-06-08T11:34:49.363Z,7.03
2018-06-08T11:37:17.471Z,6.47
2018-06-08T11:39:45.787Z,7.43
2018-06-08T11:42:14.191Z,7.00
2018-06-08T11:44:42.279Z,6.17
2018-06-08T11:47:10.626Z,6.60
2018-06-08T11:49:38.953Z,7.70
2018-06-08T11:52:07.310Z,6.80
2018-06-08T11:54:35.697Z,6.07
2018-06-08T11:57:04.061Z,6.40
2018-06-08T11:59:32.427Z,6.27
2018-06-08T12:02:00.805Z,6.20
2018-06-08T12:04:29.179Z,6.43
2018-06-08T12:06:57.523Z,6.40
2018-06-08T12:09:25.853Z,6.30
2018-06-08T12:11:54.167Z,6.00
2018-06-08T12:14:22.527Z,5.90
2018-06-08T12:16:50.866Z,6.13
2018-06-08T12:19:19.233Z,5.47
2018-06-08T12:21:47.539Z,5.13
2018-06-08T12:24:15.917Z,4.63
2018-06-08T12:26:44.258Z,5.30
2018-06-08T12:29:12.639Z,5.87
2018-06-08T12:31:41.005Z,5.83
2018-06-08T12:34:09.379Z,5.10
2018-06-08T12:36:37.809Z,5.20
2018-06-08T12:39:07.487Z,4.97
2018-06-08T12:41:36.280Z,5.00
2018-06-08T12:44:04.619Z,4.93
2018-06-08T12:46:33.046Z,4.73
2018-06-08T12:49:01.451Z,4.80
2018-06-08T12:51:29.759Z,5.00
2018-06-08T12:53:58.113Z,4.53
2018-06-08T12:56:26.533Z,5.40
2018-06-08T12:58:54.881Z,4.60
2018-06-08T13:01:23.245Z,5.00
2018-06-08T13:03:51.558Z,4.60
2018-06-08T13:06:19.942Z,4.40
2018-06-08T13:08:48.287Z,4.67
2018-06-08T13:11:16.655Z,4.50
2018-06-08T13:13:45.415Z,4.60
2018-06-08T13:16:13.914Z,4.10
2018-06-08T13:18:42.292Z,5.10
2018-06-08T13:21:10.665Z,4.70
2018-06-08T13:23:38.988Z,4.20
2018-06-08T13:26:07.327Z,4.30
2018-06-08T13:28:35.669Z,4.20
2018-06-08T13:31:04.021Z,4.43
2018-06-08T13:33:32.451Z,4.60
2018-06-08T13:36:00.777Z,4.43
2018-06-08T13:38:29.110Z,4.87
2018-06-08T13:40:57.203Z,4.83
2018-06-08T13:43:25.575Z,4.70
2018-06-08T13:45:53.901Z,4.90
2018-06-08T13:48:22.027Z,4.67
2018-06-08T13:50:50.499Z,5.33
2018-06-08T13:53:18.847Z,4.80
2018-06-08T13:55:47.210Z,5.10
2018-06-08T13:58:15.669Z,4.90
2018-06-08T14:00:44.081Z,4.77
2018-06-08T14:03:12.465Z,5.10
2018-06-08T14:05:40.610Z,5.07
2018-06-08T14:08:09.032Z,5.13
2018-06-08T14:10:37.439Z,4.40
2018-06-08T14:13:05.786Z,4.90
2018-06-08T14:15:34.120Z,5.17
2018-06-08T14:18:02.491Z,5.27
2018-06-08T14:20:30.882Z,5.50
2018-06-08T14:22:59.266Z,5.60
2018-06-08T14:25:27.670Z,5.20
2018-06-08T14:27:56.054Z,5.70
2018-06-08T14:30:24.438Z,5.53
2018-06-08T14:32:52.813Z,5.57
2018-06-08T14:35:21.159Z,5.40
2018-06-08T14:37:49.562Z,5.70
2018-06-08T14:40:17.943Z,5.30
2018-06-08T14:42:46.294Z,5.23
2018-06-08T14:45:14.684Z,5.33
2018-06-08T14:47:43.129Z,5.00
2018-06-08T14:50:11.435Z,4.63
2018-06-08T14:52:39.782Z,4.83
2018-06-08T14:55:08.190Z,5.00
2018-06-08T14:57:36.596Z,4.80
2018-06-08T15:00:05.562Z,5.00
2018-06-08T15:02:33.906Z,4.70
2018-06-08T15:05:02.266Z,4.87
2018-06-08T15:07:31.079Z,4.60
2018-06-08T15:09:59.393Z,5.10
2018-06-08T15:12:27.484Z,4.80
2018-06-08T15:14:55.815Z,4.63
2018-06-08T15:17:24.125Z,6.70
2018-06-08T15:19:52.453Z,4.70
2018-06-08T15:22:20.737Z,5.20
2018-06-08T15:24:49.144Z,5.30
2018-06-08T15:27:17.589Z,5.57
2018-06-08T15:29:45.916Z,5.83
2018-06-08T15:32:14.264Z,5.83
2018-06-08T15:34:42.631Z,5.60
2018-06-08T15:37:11.014Z,5.50
2018-06-08T15:39:39.385Z,5.47
2018-06-08T15:42:07.725Z,8.27
2018-06-08T15:44:36.084Z,15.23
2018-06-08T15:47:04.158Z,11.83
2018-06-08T15:49:32.256Z,9.50
2018-06-08T15:52:00.574Z,5.80
2018-06-08T15:54:28.985Z,8.23
2018-06-08T15:56:57.373Z,6.10
2018-06-08T15:59:25.687Z,6.57
2018-06-08T16:01:54.093Z,6.30
2018-06-08T16:04:22.444Z,5.20
2018-06-08T16:06:50.777Z,4.13
2018-06-08T16:09:19.123Z,4.77
2018-06-08T16:11:48.353Z,4.20
2018-06-08T16:14:16.433Z,3.87
2018-06-08T16:16:44.724Z,3.80
2018-06-08T16:19:13.093Z,3.70
2018-06-08T16:21:41.433Z,3.17
2018-06-08T16:24:09.774Z,3.60
2018-06-08T16:26:38.105Z,3.20
2018-06-08T16:29:06.474Z,3.50
2018-06-08T16:31:34.562Z,3.10
2018-06-08T16:34:02.900Z,3.30
2018-06-08T16:36:31.209Z,3.10
2018-06-08T16:38:59.523Z,3.00
2018-06-08T16:41:27.839Z,2.53
2018-06-08T16:43:56.228Z,2.70
2018-06-08T16:46:24.563Z,2.77
2018-06-08T16:48:52.853Z,2.60
2018-06-08T16:51:21.250Z,2.50
2018-06-08T16:53:49.594Z,3.10
2018-06-08T16:56:17.909Z,2.90
2018-06-08T16:58:46.293Z,3.60
2018-06-08T17:01:14.684Z,3.03
2018-06-08T17:03:42.763Z,2.50
2018-06-08T17:06:11.134Z,2.77
2018-06-08T17:08:39.477Z,3.00
2018-06-08T17:11:07.819Z,2.97
2018-06-08T17:13:36.142Z,2.90
2018-06-08T17:16:04.505Z,2.90
2018-06-08T17:18:32.870Z,2.90
2018-06-08T17:21:01.180Z,2.53
2018-06-08T17:23:29.544Z,2.37
2018-06-08T17:25:57.922Z,2.50
2018-06-08T17:28:26.305Z,2.30
2018-06-08T17:30:54.704Z,2.13
2018-06-08T17:33:23.123Z,2.30
2018-06-08T17:35:51.559Z,2.50
2018-06-08T17:38:19.914Z,2.63
2018-06-08T17:40:48.375Z,2.77
2018-06-08T17:43:16.791Z,2.40
2018-06-08T17:45:44.907Z,2.53
2018-06-08T17:48:13.290Z,2.77
2018-06-08T17:50:41.619Z,2.47
2018-06-08T17:53:09.673Z,2.83
2018-06-08T17:55:38.017Z,2.53
2018-06-08T17:58:06.364Z,2.73
2018-06-08T18:00:34.730Z,2.47
2018-06-08T18:03:03.106Z,2.70
2018-06-08T18:05:31.522Z,2.50
2018-06-08T18:07:59.835Z,2.63
2018-06-08T18:10:28.219Z,2.60
2018-06-08T18:12:56.581Z,2.93
2018-06-08T18:15:24.962Z,3.30
2018-06-08T18:17:53.388Z,2.53
2018-06-08T18:20:21.731Z,2.50
2018-06-08T18:22:50.079Z,2.70
2018-06-08T18:25:18.431Z,2.97
2018-06-08T18:27:46.813Z,2.97
2018-06-08T18:30:15.325Z,2.67
2018-06-08T18:32:43.685Z,2.70
2018-06-08T18:35:12.015Z,2.50
2018-06-08T18:37:40.335Z,2.77
2018-06-08T18:40:08.709Z,2.40
2018-06-08T18:42:37.080Z,2.60
2018-06-08T18:45:05.414Z,2.60
2018-06-08T18:47:33.843Z,2.57
2018-06-08T18:50:02.189Z,2.70
2018-06-08T18:52:30.563Z,2.60
2018-06-08T18:54:59.179Z,2.50
2018-06-08T18:57:27.537Z,3.00
2018-06-08T18:59:55.636Z,2.77
2018-06-08T19:02:23.935Z,2.60
2018-06-08T19:04:52.278Z,2.70
2018-06-08T19:07:20.600Z,2.60
2018-06-08T19:09:48.912Z,2.73
2018-06-08T19:12:17.256Z,2.30
2018-06-08T19:14:45.604Z,2.40
2018-06-08T19:17:13.927Z,2.43
2018-06-08T19:19:42.277Z,2.33
2018-06-08T19:22:10.581Z,2.40
2018-06-08T19:24:38.924Z,2.40
2018-06-08T19:27:07.279Z,2.63
2018-06-08T19:29:35.592Z,2.67
2018-06-08T19:32:04.054Z,2.60
2018-06-08T19:34:32.347Z,2.20
2018-06-08T19:37:00.723Z,2.60
2018-06-08T19:39:29.094Z,2.70
2018-06-08T19:41:57.468Z,2.60
2018-06-08T19:44:25.834Z,2.43
2018-06-08T19:46:54.164Z,2.57
2018-06-08T19:49:22.497Z,2.53
2018-06-08T19:51:50.818Z,2.63
2018-06-08T19:54:19.152Z,2.30
2018-06-08T19:56:48.089Z,2.50
2018-06-08T19:59:17.069Z,2.60
2018-06-08T20:01:45.936Z,2.60
2018-06-08T20:04:14.585Z,2.77
2018-06-08T20:06:43.645Z,2.47
2018-06-08T20:09:12.703Z,3.07
2018-06-08T20:11:42.167Z,2.43
2018-06-08T20:14:11.410Z,2.60
2018-06-08T20:16:40.375Z,2.30
2018-06-08T20:19:09.142Z,2.60
2018-06-08T20:21:38.185Z,2.47
2018-06-08T20:24:07.248Z,2.90
2018-06-08T20:26:36.166Z,2.43
2018-06-08T20:29:04.888Z,2.50
2018-06-08T20:31:33.670Z,3.00
2018-06-08T20:34:02.330Z,2.97
2018-06-08T20:36:31.060Z,3.40
2018-06-08T20:38:59.945Z,3.17
2018-06-08T20:41:28.785Z,3.50
2018-06-08T20:43:57.954Z,2.90
2018-06-08T20:46:27.101Z,3.20
2018-06-08T20:48:55.762Z,3.20
2018-06-08T20:51:24.708Z,2.73
2018-06-08T20:53:53.613Z,3.13
2018-06-08T20:56:22.474Z,3.13
2018-06-08T20:58:51.935Z,3.30
2018-06-08T21:01:20.656Z,3.10
2018-06-08T21:03:49.136Z,3.40
2018-06-08T21:06:17.487Z,3.43
2018-06-08T21:08:45.860Z,3.27
2018-06-08T21:11:14.177Z,3.30
2018-06-08T21:13:42.930Z,3.40
2018-06-08T21:16:11.662Z,3.43
2018-06-08T21:18:40.165Z,3.20
2018-06-08T21:21:08.589Z,3.10
2018-06-08T21:23:36.928Z,3.03
2018-06-08T21:26:05.339Z,2.90
2018-06-08T21:28:33.699Z,3.30
2018-06-08T21:31:02.029Z,3.00
2018-06-08T21:33:30.500Z,2.97
2018-06-08T21:35:58.813Z,3.17
2018-06-08T21:38:27.699Z,3.10
2018-06-08T21:40:56.034Z,3.33
2018-06-08T21:43:24.391Z,2.73
2018-06-08T21:45:52.744Z,2.80
2018-06-08T21:48:21.110Z,2.83
2018-06-08T21:50:49.458Z,2.93
2018-06-08T21:53:17.840Z,2.60
2018-06-08T21:55:46.152Z,2.53
2018-06-08T21:58:14.492Z,3.10
2018-06-08T22:00:42.828Z,3.30
2018-06-08T22:03:11.198Z,3.00
2018-06-08T22:05:39.528Z,3.20
2018-06-08T22:08:07.870Z,2.93
2018-06-08T22:10:36.193Z,2.97
2018-06-08T22:13:04.541Z,3.27
2018-06-08T22:15:32.902Z,3.33
2018-06-08T22:18:01.238Z,3.57
2018-06-08T22:20:29.565Z,3.23
2018-06-08T22:22:57.942Z,3.50
2018-06-08T22:25:26.270Z,3.47
2018-06-08T22:27:54.600Z,3.80
2018-06-08T22:30:22.920Z,3.43
2018-06-08T22:32:52.596Z,4.07
2018-06-08T22:35:20.910Z,4.50
2018-06-08T22:37:49.249Z,3.87
2018-06-08T22:40:17.604Z,3.77
2018-06-08T22:42:45.979Z,4.17
2018-06-08T22:45:14.418Z,3.70
2018-06-08T22:47:42.497Z,4.40
2018-06-08T22:50:10.858Z,4.40
2018-06-08T22:52:39.535Z,4.97
2018-06-08T22:55:07.835Z,4.37
2018-06-08T22:57:36.184Z,4.33
2018-06-08T23:00:05.208Z,5.03
2018-06-08T23:02:33.622Z,4.53
2018-06-08T23:05:01.931Z,4.83
2018-06-08T23:07:30.339Z,4.80
2018-06-08T23:09:58.438Z,4.30
2018-06-08T23:12:26.818Z,5.40
2018-06-08T23:14:55.171Z,5.07
2018-06-08T23:17:23.468Z,5.73
2018-06-08T23:19:51.836Z,5.13
2018-06-08T23:22:20.194Z,4.93
2018-06-08T23:24:48.546Z,5.00
2018-06-08T23:27:16.925Z,5.30
2018-06-08T23:29:45.300Z,5.77
2018-06-08T23:32:13.657Z,4.23
2018-06-08T23:34:41.966Z,4.77
2018-06-08T23:37:10.330Z,4.53
2018-06-08T23:39:38.680Z,4.93
2018-06-08T23:42:07.008Z,4.40
2018-06-08T23:44:35.341Z,5.13
2018-06-08T23:47:03.847Z,4.50
2018-06-08T23:49:32.233Z,4.23
2018-06-08T23:52:00.562Z,4.37
2018-06-08T23:54:28.961Z,4.23
2018-06-08T23:56:57.326Z,4.10
2018-06-08T23:59:25.662Z,4.30
